Thunderstorms From: 15-12-2017 06:00 Until: 16-12-2017 06:00 warning for: Thunderstorms Level: Yellow info button

Although rather usual in this region, locally or potentially dangerous phenomena are expected. (such as local winds, summer thunderstorms, rising streams or high waves) Be aware and pay attention to the latest weather updates, especially if you carry out activities exposed to weather or close to a stream or shoreline. 


Meteo18 Weather Cam more information Meteo18 Weather Cam


warning for Thunderstorms more information blitzortung!


Rain radar more information rain snow radar


Visit our other weather sites:

Template documentation
and downloads

And another site



Weather Underground History page Text

Daily Summary for June 8, 2017 Units:  English    Metric   Both
« Previous Day
Next Day »
Daily Weekly Monthly Yearly Custom
  High: Low: Average:
Temperature: 81.1 °F 47.7 °F 64.6 °F
Dew Point: 61.3 °F 46 °F 53.4 °F
Humidity: 96 % 42 % 70 %
Wind Speed: 10 mph 0 mph 1.4 mph
Wind Gust: 12 mph - -
Wind:- - SSE
Pressure: 30.2 in 29.9 in -
Precipitation: 0 in    
Historical Graphs
 
 
Tabular Data for June 8, 2017
Time Temperature Dew Point Pressure Wind Wind Speed Wind Gust Humidity Rainfall Rate (Hourly)
00:02 52.9 °F 49.1 °F 30.2 in Calm     87 % 0 in
00:07 52.5 °F 48.7 °F 30.2 in Calm     87 % 0 in
00:12 52.3 °F 48.6 °F 30.2 in Calm     87 % 0 in
00:17 52.2 °F 48.4 °F 30.2 in Calm     87 % 0 in
00:22 52.2 °F 48.7 °F 30.2 in Calm     88 % 0 in
00:27 52.2 °F 48.7 °F 30.2 in Calm     88 % 0 in
00:32 52.2 °F 48.4 °F 30.2 in Calm     87 % 0 in
00:42 52 °F 48.2 °F 30.2 in Calm     87 % 0 in
00:52 52.2 °F 48.4 °F 30.2 in Calm     87 % 0 in
00:57 52 °F 48.2 °F 30.2 in Calm     87 % 0 in
01:02 52 °F 48.6 °F 30.2 in Calm     88 % 0 in
01:07 52 °F 48.6 °F 30.2 in Calm     88 % 0 in
01:12 51.8 °F 48.4 °F 30.2 in Calm     88 % 0 in
01:17 51.6 °F 48.2 °F 30.2 in Calm     88 % 0 in
01:22 51.6 °F 48.6 °F 30.2 in Calm     89 % 0 in
01:27 51.6 °F 48.6 °F 30.2 in Calm     89 % 0 in
01:32 51.6 °F 48.6 °F 30.2 in Calm     89 % 0 in
01:37 51.6 °F 48.6 °F 30.2 in Calm     89 % 0 in
01:42 51.6 °F 48.6 °F 30.2 in Calm     89 % 0 in
01:47 51.4 °F 48.4 °F 30.2 in Calm     89 % 0 in
01:52 51.3 °F 48.2 °F 30.2 in Calm     89 % 0 in
01:57 51.1 °F 48 °F 30.2 in Calm     89 % 0 in
02:02 51.1 °F 48 °F 30.2 in Calm     89 % 0 in
02:07 50.7 °F 47.8 °F 30.2 in Calm     90 % 0 in
02:12 50.7 °F 47.8 °F 30.2 in Calm     90 % 0 in
02:17 50.5 °F 47.7 °F 30.2 in Calm     90 % 0 in
02:22 50.5 °F 47.7 °F 30.2 in Calm     90 % 0 in
02:27 50.4 °F 47.8 °F 30.2 in Calm     91 % 0 in
02:32 50.2 °F 47.7 °F 30.1 in Calm     91 % 0 in
02:37 49.8 °F 47.3 °F 30.1 in Calm     91 % 0 in
02:42 49.8 °F 47.7 °F 30.1 in Calm     92 % 0 in
02:47 49.8 °F 47.7 °F 30.1 in Calm     92 % 0 in
02:52 49.8 °F 47.8 °F 30.1 in Calm     93 % 0 in
02:57 50.2 °F 48 °F 30.1 in Calm     92 % 0 in
03:02 50.2 °F 48 °F 30.1 in Calm     92 % 0 in
03:07 50.4 °F 48.2 °F 30.1 in Calm     92 % 0 in
03:12 50.4 °F 48.2 °F 30.1 in Calm     92 % 0 in
03:17 50 °F 47.8 °F 30.1 in Calm     92 % 0 in
03:22 49.8 °F 47.7 °F 30.1 in Calm     92 % 0 in
03:27 49.6 °F 47.5 °F 30.1 in Calm     92 % 0 in
03:32 49.5 °F 47.5 °F 30.1 in Calm     93 % 0 in
03:37 49.6 °F 47.7 °F 30.1 in Calm     93 % 0 in
03:42 49.6 °F 47.5 °F 30.1 in Calm     92 % 0 in
03:47 49.5 °F 47.3 °F 30.1 in Calm     92 % 0 in
03:52 49.3 °F 47.3 °F 30.1 in Calm     93 % 0 in
03:57 49.5 °F 47.5 °F 30.1 in Calm     93 % 0 in
04:02 49.3 °F 47.3 °F 30.1 in Calm     93 % 0 in
04:07 48.9 °F 46.9 °F 30.1 in Calm     93 % 0 in
04:12 48.7 °F 46.8 °F 30.1 in Calm     93 % 0 in
04:17 48.6 °F 46.6 °F 30.1 in Calm     93 % 0 in
04:22 48.4 °F 46.4 °F 30.1 in Calm     93 % 0 in
04:27 48.4 °F 46.4 °F 30.1 in Calm     93 % 0 in
04:32 48.2 °F 46.2 °F 30.1 in Calm     93 % 0 in
04:37 48 °F 46 °F 30.1 in Calm     93 % 0 in
04:42 47.8 °F 46.2 °F 30.1 in Calm     94 % 0 in
04:47 48 °F 46.4 °F 30.1 in Calm     94 % 0 in
04:52 48 °F 46.4 °F 30.1 in Calm     94 % 0 in
05:02 48 °F 46.4 °F 30.1 in Calm     94 % 0 in
05:07 47.8 °F 46.2 °F 30.1 in Calm     94 % 0 in
05:12 47.8 °F 46.2 °F 30.1 in Calm     94 % 0 in
05:17 47.7 °F 46 °F 30.1 in Calm     94 % 0 in
05:22 47.7 °F 46.2 °F 30.1 in Calm     95 % 0 in
05:32 47.7 °F 46.2 °F 30.1 in Calm     95 % 0 in
05:37 47.7 °F 46.2 °F 30.1 in Calm     95 % 0 in
05:42 47.7 °F 46.2 °F 30.1 in Calm     95 % 0 in
05:47 47.8 °F 46.4 °F 30.1 in Calm     95 % 0 in
05:52 47.8 °F 46.4 °F 30.1 in Calm     95 % 0 in
06:02 47.8 °F 46.4 °F 30.1 in Calm     95 % 0 in
06:12 47.8 °F 46.4 °F 30.1 in Calm     95 % 0 in
06:17 47.8 °F 46.4 °F 30.1 in Calm     95 % 0 in
06:22 47.8 °F 46.4 °F 30.1 in Calm     95 % 0 in
06:27 47.8 °F 46.4 °F 30.1 in Calm     95 % 0 in
06:32 47.8 °F 46.4 °F 30.1 in Calm     95 % 0 in
06:37 48.2 °F 46.8 °F 30.1 in Calm     95 % 0 in
06:42 48.6 °F 47.1 °F 30.1 in Calm     95 % 0 in
06:47 48.9 °F 47.8 °F 30.1 in Calm     96 % 0 in
06:52 48.7 °F 47.3 °F 30.1 in Calm     95 % 0 in
06:57 48.6 °F 47.1 °F 30.1 in Calm     95 % 0 in
07:02 48.7 °F 47.3 °F 30.1 in Calm     95 % 0 in
07:07 49.3 °F 47.8 °F 30.1 in Calm     95 % 0 in
07:12 50.4 °F 49.3 °F 30.1 in Calm     96 % 0 in
07:17 51.1 °F 50 °F 30.1 in Calm     96 % 0 in
07:22 51.6 °F 50.2 °F 30.1 in Calm     95 % 0 in
07:32 52.2 °F 50.5 °F 30.1 in Calm     94 % 0 in
07:37 52.3 °F 50.7 °F 30.1 in Calm     94 % 0 in
07:42 52.9 °F 50.9 °F 30.1 in Calm     93 % 0 in
07:47 53.2 °F 51.3 °F 30.1 in Calm     93 % 0 in
07:52 53.4 °F 50.9 °F 30.1 in Calm     91 % 0 in
07:57 54.1 °F 51.6 °F 30.1 in Calm     91 % 0 in
08:02 54.7 °F 51.4 °F 30.1 in Calm     89 % 0 in
08:07 55 °F 51.6 °F 30.1 in Calm     88 % 0 in
08:12 55.2 °F 51.4 °F 30.1 in Calm     87 % 0 in
08:17 55.8 °F 52 °F 30.1 in Calm   1 mph 87 % 0 in
08:22 56.1 °F 52 °F 30.1 in Calm   1 mph 86 % 0 in
08:27 56.7 °F 52.2 °F 30.1 in Calm   2 mph 85 % 0 in
08:32 56.8 °F 52 °F 30.1 in Calm   2 mph 84 % 0 in
08:37 57.6 °F 52.7 °F 30.1 in Calm   2 mph 84 % 0 in
08:42 57.9 °F 52.7 °F 30.1 in Calm   2 mph 83 % 0 in
08:52 58.8 °F 53.4 °F 30.1 in Calm   2 mph 82 % 0 in
08:57 58.8 °F 53.1 °F 30.1 in Calm   6 mph 81 % 0 in
09:02 59.4 °F 53.2 °F 30.1 in SW 1 mph 6 mph 80 % 0 in
09:12 60.4 °F 53.6 °F 30.1 in Calm   4 mph 78 % 0 in
09:17 61 °F 54.1 °F 30.1 in Calm   4 mph 78 % 0 in
09:22 61.9 °F 54.3 °F 30.1 in SSE 1 mph 4 mph 76 % 0 in
09:27 62.2 °F 53.4 °F 30.1 in SSE 1 mph 4 mph 73 % 0 in
09:32 62.8 °F 54.3 °F 30.1 in SE 1 mph 4 mph 74 % 0 in
09:37 63 °F 53.4 °F 30.1 in SW 1 mph 6 mph 71 % 0 in
09:42 63.3 °F 54.1 °F 30.1 in SSW 3 mph 6 mph 72 % 0 in
09:47 63.7 °F 53.8 °F 30.1 in SSE 2 mph 6 mph 70 % 0 in
09:52 64.6 °F 55 °F 30.1 in Calm   6 mph 71 % 0 in
09:57 64.9 °F 54.1 °F 30.1 in SW 1 mph 5 mph 68 % 0 in
10:02 64.8 °F 54 °F 30.1 in SE 3 mph 7 mph 68 % 0 in
10:12 65.1 °F 53.4 °F 30.1 in SW 7 mph 7 mph 66 % 0 in
10:17 65.3 °F 53.6 °F 30.1 in SW 2 mph 7 mph 66 % 0 in
10:22 65.8 °F 54.1 °F 30.1 in SW 1 mph 8 mph 66 % 0 in
10:32 66.7 °F 52.3 °F 30.1 in SSE 2 mph 10 mph 60 % 0 in
10:42 66.9 °F 52.5 °F 30.1 in SE 4 mph 10 mph 60 % 0 in
10:52 67.6 °F 53.2 °F 30.1 in East 2 mph 9 mph 60 % 0 in
11:02 68.4 °F 53.1 °F 30.1 in ESE 7 mph 11 mph 58 % 0 in
11:12 69.1 °F 53.6 °F 30.1 in SW 5 mph 11 mph 58 % 0 in
11:17 69.4 °F 53.1 °F 30.1 in SW 2 mph 10 mph 56 % 0 in
11:22 69.3 °F 52 °F 30.1 in SW 4 mph 10 mph 54 % 0 in
11:27 69.6 °F 55 °F 30.1 in South 1 mph 10 mph 60 % 0 in
11:32 69.6 °F 54.1 °F 30.1 in East 5 mph 12 mph 58 % 0 in
11:37 69.6 °F 55 °F 30.1 in SSW 4 mph 12 mph 60 % 0 in
11:42 70.2 °F 53.8 °F 30.1 in SSE 3 mph 12 mph 56 % 0 in
11:47 70.9 °F 56.3 °F 30.1 in East 6 mph 10 mph 60 % 0 in
11:52 70.3 °F 52.3 °F 30.1 in SSE 2 mph 10 mph 53 % 0 in
11:57 70.7 °F 52.7 °F 30.1 in SSW 3 mph 10 mph 53 % 0 in
12:02 71.4 °F 54.9 °F 30.1 in ESE 7 mph 10 mph 56 % 0 in
12:07 71.4 °F 54.5 °F 30.1 in SSW 3 mph 10 mph 55 % 0 in
12:12 71.4 °F 52.9 °F 30.1 in SSW 6 mph 10 mph 52 % 0 in
12:17 71.4 °F 54 °F 30.1 in ESE 6 mph 11 mph 54 % 0 in
12:22 71.4 °F 53.4 °F 30.1 in SSW 2 mph 11 mph 53 % 0 in
12:27 72 °F 54.3 °F 30.1 in SE 3 mph 11 mph 54 % 0 in
12:32 72.3 °F 53.8 °F 30.1 in South 4 mph 10 mph 52 % 0 in
12:37 72.3 °F 53.2 °F 30.1 in SE 6 mph 11 mph 51 % 0 in
12:42 72.3 °F 54.7 °F 30.1 in SW 4 mph 11 mph 54 % 0 in
12:47 72.7 °F 53.4 °F 30.1 in SE 2 mph 11 mph 51 % 0 in
12:52 72.9 °F 53.1 °F 30.1 in SE 2 mph 11 mph 50 % 0 in
12:57 73.4 °F 54.1 °F 30.1 in WNW 2 mph 11 mph 51 % 0 in
13:02 73.4 °F 53.1 °F 30.1 in SSE 3 mph 10 mph 49 % 0 in
13:07 73.6 °F 53.8 °F 30.1 in ESE 2 mph 10 mph 50 % 0 in
13:12 73.2 °F 52.9 °F 30.1 in ESE 4 mph 9 mph 49 % 0 in
13:17 73.6 °F 53.8 °F 30.1 in SE 2 mph 9 mph 50 % 0 in
13:22 73.9 °F 53.6 °F 30.1 in SE 3 mph 11 mph 49 % 0 in
13:27 73.9 °F 53.1 °F 30.1 in ENE 3 mph 11 mph 48 % 0 in
13:32 74.1 °F 54.3 °F 30.1 in SSE 3 mph 11 mph 50 % 0 in
13:37 74.7 °F 54.9 °F 30.1 in East 3 mph 11 mph 50 % 0 in
13:42 74.8 °F 53.2 °F 30.1 in SW 4 mph 12 mph 47 % 0 in
13:47 74.3 °F 54 °F 30.1 in South 7 mph 12 mph 49 % 0 in
13:52 74.5 °F 54.1 °F 30.1 in South 6 mph 11 mph 49 % 0 in
14:02 75.2 °F 53.6 °F 30 in SSW 7 mph 10 mph 47 % 0 in
14:07 75.2 °F 55.2 °F 30 in South 2 mph 10 mph 50 % 0 in
14:12 75.9 °F 53.6 °F 30 in SW 3 mph 9 mph 46 % 0 in
14:17 76.1 °F 55 °F 30 in SSW 4 mph 9 mph 48 % 0 in
14:22 76.3 °F 54.5 °F 30 in ESE 10 mph 10 mph 47 % 0 in
14:32 75.7 °F 54.7 °F 30 in SSW 1 mph 10 mph 48 % 0 in
14:37 76.6 °F 54.9 °F 30 in SSE 2 mph 10 mph 47 % 0 in
14:42 76.8 °F 53.8 °F 30 in South 4 mph 10 mph 45 % 0 in
14:47 76.8 °F 55.6 °F 30 in South 3 mph 10 mph 48 % 0 in
14:52 77.4 °F 55.6 °F 30 in SSW 5 mph 10 mph 47 % 0 in
14:57 77.4 °F 55 °F 30 in SSW 3 mph 9 mph 46 % 0 in
15:02 77.7 °F 55.9 °F 30 in SSW 2 mph 8 mph 47 % 0 in
15:07 77.7 °F 55.9 °F 30 in SSW 5 mph 9 mph 47 % 0 in
15:12 77.9 °F 57.2 °F 30 in East 4 mph 10 mph 49 % 0 in
15:17 77.5 °F 55 °F 30 in SE 5 mph 10 mph 46 % 0 in
15:22 77.7 °F 55.2 °F 30 in SW 3 mph 10 mph 46 % 0 in
15:27 77.7 °F 56.5 °F 30 in SW 5 mph 10 mph 48 % 0 in
15:32 78.3 °F 56.3 °F 30 in Calm   10 mph 47 % 0 in
15:37 78.4 °F 55.4 °F 30 in ENE 1 mph 9 mph 45 % 0 in
15:42 78.4 °F 57.2 °F 30 in Calm   9 mph 48 % 0 in
15:47 78.4 °F 55.9 °F 30 in SSW 4 mph 7 mph 46 % 0 in
15:52 78.6 °F 55.6 °F 30 in ESE 2 mph 7 mph 45 % 0 in
15:57 79 °F 57 °F 30 in ESE 4 mph 7 mph 47 % 0 in
16:02 78.6 °F 55.6 °F 30 in SSW 1 mph 8 mph 45 % 0 in
16:12 78.8 °F 56.3 °F 30 in SW 3 mph 9 mph 46 % 0 in
16:17 79 °F 55.2 °F 30 in SW 2 mph 9 mph 44 % 0 in
16:22 78.8 °F 56.8 °F 30 in ESE 6 mph 8 mph 47 % 0 in
16:27 79 °F 56.5 °F 30 in SW 2 mph 9 mph 46 % 0 in
16:32 79.3 °F 57.9 °F 30 in South 5 mph 9 mph 48 % 0 in
16:37 79.7 °F 56.5 °F 30 in ESE 3 mph 8 mph 45 % 0 in
16:42 80.1 °F 56.8 °F 30 in SE 2 mph 8 mph 45 % 0 in
16:47 80.2 °F 57.6 °F 30 in ESE 4 mph 8 mph 46 % 0 in
16:52 80.4 °F 57.2 °F 30 in SSW 5 mph 8 mph 45 % 0 in
16:57 79.9 °F 55.4 °F 30 in Calm   8 mph 43 % 0 in
17:02 80.4 °F 56.5 °F 30 in SW 3 mph 8 mph 44 % 0 in
17:12 80.4 °F 55.2 °F 30 in South 3 mph 8 mph 42 % 0 in
17:17 80.2 °F 56.3 °F 30 in ESE 6 mph 7 mph 44 % 0 in
17:22 80.2 °F 57 °F 30 in ESE 2 mph 7 mph 45 % 0 in
17:27 80.2 °F 57 °F 30 in ESE 5 mph 7 mph 45 % 0 in
17:32 80.4 °F 58.3 °F 30 in SE 3 mph 8 mph 47 % 0 in
17:37 81.1 °F 58.5 °F 30 in South 2 mph 8 mph 46 % 0 in
17:42 81 °F 57.6 °F 30 in South 2 mph 11 mph 45 % 0 in
17:47 81 °F 57.6 °F 30 in SW 1 mph 11 mph 45 % 0 in
17:52 80.8 °F 56.1 °F 30 in SSW 5 mph 11 mph 43 % 0 in
17:57 80.6 °F 56.1 °F 30 in SE 5 mph 9 mph 43 % 0 in
18:02 80.6 °F 57.4 °F 30 in South 3 mph 9 mph 45 % 0 in
18:07 80.8 °F 56.8 °F 30 in South 3 mph 8 mph 44 % 0 in
18:12 80.8 °F 56.8 °F 30 in ESE 9 mph 9 mph 44 % 0 in
18:17 80.4 °F 57.2 °F 30 in SSW 1 mph 11 mph 45 % 0 in
18:22 80.4 °F 57.7 °F 30 in SSE 1 mph 11 mph 46 % 0 in
18:32 79.9 °F 57.2 °F 29.9 in South 1 mph 7 mph 46 % 0 in
18:42 80.8 °F 58.6 °F 29.9 in SE 4 mph 7 mph 47 % 0 in
18:47 80.2 °F 58.8 °F 29.9 in ESE 3 mph 7 mph 48 % 0 in
18:52 80.1 °F 58.1 °F 29.9 in South 2 mph 7 mph 47 % 0 in
18:57 79.7 °F 57.7 °F 29.9 in SW 2 mph 7 mph 47 % 0 in
19:02 79.3 °F 58.5 °F 29.9 in Calm   5 mph 49 % 0 in
19:07 79 °F 59.4 °F 29.9 in East 2 mph 5 mph 51 % 0 in
19:12 78.6 °F 60.1 °F 29.9 in ESE 1 mph 5 mph 53 % 0 in
19:22 77.7 °F 59.7 °F 29.9 in SSE 3 mph 5 mph 54 % 0 in
19:27 77.5 °F 60.6 °F 29.9 in Calm   6 mph 56 % 0 in
19:32 77.4 °F 61.3 °F 29.9 in ESE 1 mph 6 mph 58 % 0 in
19:37 76.8 °F 60.4 °F 29.9 in ESE 2 mph 6 mph 57 % 0 in
19:42 76.5 °F 61 °F 29.9 in ESE 1 mph 5 mph 59 % 0 in
19:47 75.9 °F 60.6 °F 29.9 in Calm   5 mph 59 % 0 in
19:52 75.6 °F 61.2 °F 29.9 in ESE 2 mph 3 mph 61 % 0 in
19:57 75 °F 61.2 °F 29.9 in Calm   4 mph 62 % 0 in
20:02 74.7 °F 60.8 °F 29.9 in Calm   4 mph 62 % 0 in
20:07 74.5 °F 61 °F 29.9 in Calm   4 mph 63 % 0 in
20:12 74.5 °F 61 °F 29.9 in Calm   3 mph 63 % 0 in
20:17 74.5 °F 60.6 °F 29.9 in Calm   2 mph 62 % 0 in
20:22 74.5 °F 60.1 °F 29.9 in SE 1 mph 2 mph 61 % 0 in
20:32 74.7 °F 60.8 °F 29.9 in Calm   2 mph 62 % 0 in
20:37 74.5 °F 60.6 °F 29.9 in Calm   2 mph 62 % 0 in
20:42 74.1 °F 60.8 °F 29.9 in Calm   1 mph 63 % 0 in
20:47 73.8 °F 60.8 °F 29.9 in Calm     64 % 0 in
20:52 73.6 °F 61.2 °F 29.9 in Calm     65 % 0 in
20:57 73.4 °F 60.1 °F 29.9 in Calm     63 % 0 in
21:02 73.2 °F 60.8 °F 29.9 in Calm     65 % 0 in
21:12 72.7 °F 61.2 °F 29.9 in Calm     67 % 0 in
21:17 72.3 °F 60.3 °F 29.9 in Calm     66 % 0 in
21:22 71.8 °F 60.3 °F 29.9 in Calm     67 % 0 in
21:27 71.2 °F 59.7 °F 29.9 in Calm     67 % 0 in
21:32 71.1 °F 59.9 °F 29.9 in Calm     68 % 0 in
21:37 70.5 °F 59.4 °F 29.9 in Calm     68 % 0 in
21:42 70.3 °F 59.4 °F 29.9 in Calm     68 % 0 in
21:47 70 °F 59 °F 29.9 in Calm     68 % 0 in
21:52 69.6 °F 59.4 °F 29.9 in SE 1 mph   70 % 0 in
21:57 68.7 °F 59.7 °F 29.9 in Calm   1 mph 73 % 0 in
22:02 68.2 °F 58.8 °F 29.9 in Calm   1 mph 72 % 0 in
22:07 67.8 °F 58.5 °F 29.9 in WNW 1 mph 1 mph 72 % 0 in
22:12 67.5 °F 58.5 °F 29.9 in Calm   1 mph 73 % 0 in
22:17 67.3 °F 58.6 °F 29.9 in Calm   1 mph 74 % 0 in
22:22 67.6 °F 59.4 °F 29.9 in NNE 2 mph 2 mph 75 % 0 in
22:32 67.6 °F 58.6 °F 29.9 in Calm   2 mph 73 % 0 in
22:37 67.3 °F 59 °F 29.9 in Calm   2 mph 75 % 0 in
22:42 67.3 °F 59 °F 29.9 in Calm   1 mph 75 % 0 in
22:47 67.3 °F 59 °F 29.9 in Calm   1 mph 75 % 0 in
22:52 66.7 °F 58.6 °F 29.9 in Calm   1 mph 75 % 0 in
22:57 66.6 °F 58.5 °F 29.9 in Calm   1 mph 75 % 0 in
23:02 66.6 °F 58.8 °F 29.9 in Calm   1 mph 76 % 0 in
23:07 66.4 °F 58.3 °F 29.9 in Calm   1 mph 75 % 0 in
23:12 66.4 °F 58.3 °F 29.9 in Calm   1 mph 75 % 0 in
23:17 66 °F 58.3 °F 29.9 in Calm   1 mph 76 % 0 in
23:22 65.3 °F 57.9 °F 29.9 in Calm   2 mph 77 % 0 in
23:27 65.3 °F 57.6 °F 29.9 in Calm   2 mph 76 % 0 in
23:32 65.1 °F 57.4 °F 29.9 in Calm   2 mph 76 % 0 in
23:37 65.3 °F 57.2 °F 29.9 in Calm   1 mph 75 % 0 in
23:42 65.3 °F 57.6 °F 29.9 in Calm   1 mph 76 % 0 in
23:47 65.5 °F 57.4 °F 29.9 in Calm   1 mph 75 % 0 in
23:52 65.7 °F 57.2 °F 29.9 in WNW 1 mph 1 mph 74 % 0 in
23:57 65.5 °F 57.4 °F 29.9 in Calm   1 mph 75 % 0 in
Meteo18
Compliments of Weather Underground - 4 mb

Script developed by  Jim McMurry - jmcmurry@mwt.net Adapted for the template by  Wim van der Kuil - Leuven-Template.eu

You find our weather info also at:

European Weather Network

Weather Underground

Equipment we use:

Weather-station
Davis Vue

Weather-program
Meteohub

Weather-server
Raspberry PI 2 B+

Provider
1 and 1

Davis Vue

Meteohub

Raspberry PI 2 B+

1 and 1